createdAt,value
2017-12-02T00:00:30.984Z,93.49
2017-12-02T00:01:36.987Z,93.60
2017-12-02T00:02:42.950Z,93.54
2017-12-02T00:03:48.924Z,93.42
2017-12-02T00:04:54.870Z,93.39
2017-12-02T00:06:01.165Z,93.38
2017-12-02T00:07:07.202Z,93.38
2017-12-02T00:08:13.123Z,93.44
2017-12-02T00:09:19.112Z,93.40
2017-12-02T00:10:25.079Z,93.40
2017-12-02T00:11:31.092Z,93.38
2017-12-02T00:12:37.383Z,93.42
2017-12-02T00:13:43.359Z,93.40
2017-12-02T00:14:49.299Z,93.41
2017-12-02T00:15:55.244Z,93.39
2017-12-02T00:17:01.242Z,93.18
2017-12-02T00:18:07.686Z,93.16
2017-12-02T00:19:13.697Z,93.39
2017-12-02T00:20:19.639Z,93.47
2017-12-02T00:21:25.604Z,93.45
2017-12-02T00:22:31.636Z,93.50
2017-12-02T00:23:37.712Z,93.56
2017-12-02T00:24:43.684Z,93.52
2017-12-02T00:25:49.628Z,93.65
2017-12-02T00:26:55.644Z,93.56
2017-12-02T00:28:01.794Z,93.46
2017-12-02T00:29:07.779Z,93.41
2017-12-02T00:30:14.027Z,93.33
2017-12-02T00:31:20.027Z,93.41
2017-12-02T00:32:26.038Z,93.44
2017-12-02T00:33:32.012Z,93.49
2017-12-02T00:34:37.943Z,93.49
2017-12-02T00:35:43.861Z,93.51
2017-12-02T00:36:50.341Z,93.55
2017-12-02T00:37:56.455Z,93.58
2017-12-02T00:39:02.807Z,93.74
2017-12-02T00:40:08.968Z,93.73
2017-12-02T00:41:15.077Z,93.83
2017-12-02T00:42:21.202Z,93.99
2017-12-02T00:43:27.726Z,93.92
2017-12-02T00:44:33.887Z,93.94
2017-12-02T00:45:40.136Z,93.98
2017-12-02T00:46:46.588Z,93.95
2017-12-02T00:47:53.343Z,93.92
2017-12-02T00:48:59.512Z,93.96
2017-12-02T00:50:05.940Z,93.95
2017-12-02T00:51:12.121Z,93.88
2017-12-02T00:52:18.376Z,93.80
2017-12-02T00:53:24.524Z,93.80
2017-12-02T00:54:30.711Z,93.84
2017-12-02T00:55:36.870Z,93.84
2017-12-02T00:56:43.384Z,93.81
2017-12-02T00:57:49.397Z,93.94
2017-12-02T00:58:55.566Z,93.95
2017-12-02T01:00:01.730Z,94.04
2017-12-02T01:01:07.780Z,94.02
2017-12-02T01:02:13.909Z,93.94
2017-12-02T01:03:20.153Z,93.99
2017-12-02T01:04:26.274Z,93.99
2017-12-02T01:05:32.399Z,93.94
2017-12-02T01:06:38.564Z,93.89
2017-12-02T01:07:44.796Z,93.89
2017-12-02T01:08:50.953Z,93.88
2017-12-02T01:09:57.433Z,93.86
2017-12-02T01:11:03.707Z,93.84
2017-12-02T01:12:09.978Z,93.93
2017-12-02T01:13:16.110Z,94.01
2017-12-02T01:14:22.415Z,94.05
2017-12-02T01:15:28.666Z,94.01
2017-12-02T01:16:35.261Z,93.83
2017-12-02T01:17:41.570Z,93.83
2017-12-02T01:18:47.654Z,93.77
2017-12-02T01:19:53.621Z,93.67
2017-12-02T01:21:00.043Z,93.70
2017-12-02T01:22:06.165Z,93.78
2017-12-02T01:23:12.532Z,93.73
2017-12-02T01:24:18.821Z,93.74
2017-12-02T01:25:26.098Z,93.75
2017-12-02T01:26:32.305Z,93.78
2017-12-02T01:27:38.548Z,93.83
2017-12-02T01:28:44.768Z,93.82
2017-12-02T01:29:51.219Z,93.75
2017-12-02T01:30:57.332Z,93.70
2017-12-02T01:32:03.582Z,93.74
2017-12-02T01:33:09.879Z,93.66
2017-12-02T01:34:15.998Z,93.69
2017-12-02T01:35:22.194Z,93.71
2017-12-02T01:36:28.638Z,93.71
2017-12-02T01:37:34.918Z,93.74
2017-12-02T01:38:40.908Z,93.73
2017-12-02T01:39:46.831Z,93.63
2017-12-02T01:40:52.838Z,93.63
2017-12-02T01:41:58.892Z,93.81
2017-12-02T01:43:06.735Z,93.82
2017-12-02T01:44:12.765Z,93.99
2017-12-02T01:45:21.476Z,94.10
2017-12-02T01:46:27.627Z,94.06
2017-12-02T01:47:33.883Z,93.96
2017-12-02T01:48:39.839Z,93.96
2017-12-02T01:49:46.196Z,93.92
2017-12-02T01:50:52.160Z,93.93
2017-12-02T01:51:58.106Z,93.95
2017-12-02T01:53:04.071Z,93.91
2017-12-02T01:54:10.079Z,94.02
2017-12-02T01:55:16.011Z,94.02
2017-12-02T01:56:22.377Z,93.95
2017-12-02T01:57:28.382Z,93.83
2017-12-02T01:58:34.394Z,93.69
2017-12-02T01:59:40.379Z,93.68
2017-12-02T02:00:46.319Z,93.52
2017-12-02T02:01:52.270Z,93.58
2017-12-02T02:02:58.691Z,93.21
2017-12-02T02:04:04.977Z,93.06
2017-12-02T02:05:11.167Z,93.01
2017-12-02T02:06:17.383Z,92.85
2017-12-02T02:07:23.538Z,92.94
2017-12-02T02:08:29.705Z,92.80
2017-12-02T02:09:36.297Z,92.76
2017-12-02T02:10:42.447Z,92.77
2017-12-02T02:11:48.570Z,92.81
2017-12-02T02:12:54.727Z,92.82
2017-12-02T02:14:00.891Z,92.83
2017-12-02T02:15:07.029Z,92.69
2017-12-02T02:16:13.706Z,92.75
2017-12-02T02:17:19.899Z,92.76
2017-12-02T02:18:25.856Z,92.63
2017-12-02T02:19:31.803Z,92.57
2017-12-02T02:20:37.754Z,92.61
2017-12-02T02:21:43.998Z,92.72
2017-12-02T02:22:50.161Z,92.67
2017-12-02T02:23:56.332Z,92.67
2017-12-02T02:25:02.552Z,92.66
2017-12-02T02:26:08.756Z,92.53
2017-12-02T02:27:15.452Z,92.50
2017-12-02T02:28:21.648Z,92.87
2017-12-02T02:29:27.843Z,92.97
2017-12-02T02:30:34.118Z,92.76
2017-12-02T02:31:40.306Z,92.66
2017-12-02T02:32:46.974Z,92.73
2017-12-02T02:33:53.158Z,92.73
2017-12-02T02:34:59.376Z,92.70
2017-12-02T02:36:05.498Z,92.67
2017-12-02T02:37:11.639Z,92.74
2017-12-02T02:38:18.292Z,92.91
2017-12-02T02:39:24.452Z,93.12
2017-12-02T02:40:30.615Z,93.04
2017-12-02T02:41:36.797Z,92.95
2017-12-02T02:42:42.982Z,92.84
2017-12-02T02:43:49.208Z,92.69
2017-12-02T02:44:55.333Z,92.70
2017-12-02T02:46:01.540Z,92.74
2017-12-02T02:47:07.755Z,92.61
2017-12-02T02:48:13.958Z,92.78
2017-12-02T02:49:20.122Z,92.69
2017-12-02T02:50:26.833Z,93.15
2017-12-02T02:51:33.036Z,93.18
2017-12-02T02:52:39.005Z,93.15
2017-12-02T02:53:44.980Z,93.09
2017-12-02T02:54:51.172Z,93.13
2017-12-02T02:55:57.278Z,93.03
2017-12-02T02:57:03.827Z,93.04
2017-12-02T02:58:09.976Z,92.96
2017-12-02T02:59:16.094Z,92.92
2017-12-02T03:00:22.281Z,92.84
2017-12-02T03:01:28.497Z,92.73
2017-12-02T03:02:34.670Z,92.54
2017-12-02T03:03:41.223Z,92.76
2017-12-02T03:04:47.450Z,92.99
2017-12-02T03:05:53.564Z,93.05
2017-12-02T03:06:59.741Z,93.30
2017-12-02T03:08:05.908Z,93.26
2017-12-02T03:09:12.022Z,93.08
2017-12-02T03:10:19.052Z,92.86
2017-12-02T03:11:25.369Z,92.65
2017-12-02T03:12:31.742Z,92.70
2017-12-02T03:13:37.902Z,92.45
2017-12-02T03:14:44.069Z,92.37
2017-12-02T03:15:50.310Z,92.33
2017-12-02T03:16:57.085Z,92.16
2017-12-02T03:18:03.251Z,92.19
2017-12-02T03:19:09.521Z,92.20
2017-12-02T03:20:15.531Z,92.10
2017-12-02T03:21:21.478Z,92.14
2017-12-02T03:22:27.458Z,92.20
2017-12-02T03:23:33.739Z,92.06
2017-12-02T03:24:39.881Z,92.11
2017-12-02T03:25:46.552Z,92.12
2017-12-02T03:26:52.693Z,92.13
2017-12-02T03:27:58.908Z,92.19
2017-12-02T03:29:04.963Z,92.17
2017-12-02T03:30:11.244Z,92.13
2017-12-02T03:31:17.197Z,92.01
2017-12-02T03:32:23.232Z,91.96
2017-12-02T03:33:29.157Z,91.90
2017-12-02T03:34:36.903Z,91.93
2017-12-02T03:35:43.212Z,91.84
2017-12-02T03:36:49.226Z,91.90
2017-12-02T03:37:55.893Z,92.09
2017-12-02T03:39:02.041Z,92.27
2017-12-02T03:40:08.168Z,92.43
2017-12-02T03:41:14.487Z,92.53
2017-12-02T03:42:21.234Z,92.79
2017-12-02T03:43:27.467Z,92.74
2017-12-02T03:44:33.453Z,92.75
2017-12-02T03:45:39.505Z,92.71
2017-12-02T03:46:45.558Z,92.66
2017-12-02T03:47:51.556Z,92.62
2017-12-02T03:48:58.164Z,92.58
2017-12-02T03:50:04.244Z,92.78
2017-12-02T03:51:10.963Z,92.85
2017-12-02T03:52:17.127Z,92.91
2017-12-02T03:53:23.224Z,92.89
2017-12-02T03:54:29.233Z,92.86
2017-12-02T03:55:35.634Z,92.88
2017-12-02T03:56:41.873Z,92.79
2017-12-02T03:57:48.112Z,92.75
2017-12-02T03:58:54.420Z,92.66
2017-12-02T04:00:00.740Z,92.58
2017-12-02T04:01:06.899Z,92.51
2017-12-02T04:02:13.508Z,92.38
2017-12-02T04:03:19.715Z,92.31
2017-12-02T04:04:25.939Z,92.22
2017-12-02T04:05:32.322Z,92.12
2017-12-02T04:06:38.594Z,92.04
2017-12-02T04:07:44.947Z,91.83
2017-12-02T04:08:51.161Z,91.85
2017-12-02T04:09:57.127Z,91.68
2017-12-02T04:11:03.144Z,91.67
2017-12-02T04:12:09.113Z,91.74
2017-12-02T04:13:15.202Z,91.67
2017-12-02T04:14:21.299Z,91.68
2017-12-02T04:15:27.962Z,91.54
2017-12-02T04:16:34.347Z,91.38
2017-12-02T04:17:40.668Z,91.30
2017-12-02T04:18:47.297Z,91.41
2017-12-02T04:19:53.490Z,91.47
2017-12-02T04:20:59.756Z,91.49
2017-12-02T04:22:06.291Z,91.37
2017-12-02T04:23:12.492Z,91.66
2017-12-02T04:24:18.682Z,91.61
2017-12-02T04:25:24.799Z,91.58
2017-12-02T04:26:31.146Z,91.50
2017-12-02T04:27:37.159Z,91.41
2017-12-02T04:28:43.631Z,91.37
2017-12-02T04:29:49.741Z,91.32
2017-12-02T04:30:55.827Z,91.42
2017-12-02T04:32:01.824Z,91.45
2017-12-02T04:33:07.848Z,91.62
2017-12-02T04:34:13.785Z,91.68
2017-12-02T04:35:20.352Z,91.71
2017-12-02T04:36:26.330Z,91.70
2017-12-02T04:37:32.313Z,91.69
2017-12-02T04:38:38.278Z,91.77
2017-12-02T04:39:44.262Z,91.66
2017-12-02T04:40:50.318Z,91.62
2017-12-02T04:41:56.811Z,91.59
2017-12-02T04:43:02.827Z,91.68
2017-12-02T04:44:08.780Z,91.70
2017-12-02T04:45:14.773Z,91.70
2017-12-02T04:46:20.783Z,91.71
2017-12-02T04:47:27.068Z,91.63
2017-12-02T04:48:33.018Z,91.45
2017-12-02T04:49:38.979Z,91.42
2017-12-02T04:50:45.134Z,91.33
2017-12-02T04:51:51.328Z,91.41
2017-12-02T04:52:58.438Z,91.40
2017-12-02T04:54:04.634Z,91.42
2017-12-02T04:55:10.835Z,91.36
2017-12-02T04:56:16.978Z,91.39
2017-12-02T04:57:23.196Z,91.52
2017-12-02T04:58:29.827Z,91.63
2017-12-02T04:59:35.925Z,91.72
2017-12-02T05:00:42.112Z,91.87
2017-12-02T05:01:48.254Z,92.00
2017-12-02T05:02:54.404Z,92.03
2017-12-02T05:04:00.600Z,91.97
2017-12-02T05:05:07.178Z,91.89
2017-12-02T05:06:13.326Z,91.78
2017-12-02T05:07:19.562Z,91.68
2017-12-02T05:08:25.822Z,91.65
2017-12-02T05:09:32.068Z,91.60
2017-12-02T05:10:38.312Z,91.54
2017-12-02T05:11:44.834Z,91.39
2017-12-02T05:12:50.995Z,91.42
2017-12-02T05:13:57.209Z,91.39
2017-12-02T05:15:03.521Z,91.39
2017-12-02T05:16:09.709Z,91.50
2017-12-02T05:17:15.930Z,91.53
2017-12-02T05:18:22.559Z,91.35
2017-12-02T05:19:28.779Z,91.34
2017-12-02T05:20:34.943Z,91.37
2017-12-02T05:21:41.110Z,91.46
2017-12-02T05:22:47.250Z,91.58
2017-12-02T05:23:53.564Z,91.64
2017-12-02T05:25:00.069Z,91.67
2017-12-02T05:26:06.297Z,91.77
2017-12-02T05:27:12.663Z,91.92
2017-12-02T05:28:18.853Z,91.80
2017-12-02T05:29:24.964Z,91.62
2017-12-02T05:30:31.223Z,91.53
2017-12-02T05:31:37.777Z,91.59
2017-12-02T05:32:43.952Z,91.54
2017-12-02T05:33:50.132Z,91.54
2017-12-02T05:34:56.420Z,91.47
2017-12-02T05:36:02.556Z,91.53
2017-12-02T05:37:08.701Z,91.53
2017-12-02T05:38:15.309Z,91.46
2017-12-02T05:39:21.756Z,91.39
2017-12-02T05:40:28.004Z,91.47
2017-12-02T05:41:34.212Z,91.57
2017-12-02T05:42:40.217Z,91.51
2017-12-02T05:43:46.354Z,91.49
2017-12-02T05:44:52.871Z,91.77
2017-12-02T05:45:59.932Z,91.79
2017-12-02T05:47:06.008Z,91.69
2017-12-02T05:48:12.102Z,91.82
2017-12-02T05:49:18.105Z,91.54
2017-12-02T05:50:24.427Z,91.77
2017-12-02T05:51:30.437Z,91.62
2017-12-02T05:52:36.420Z,91.67
2017-12-02T05:53:42.464Z,91.58
2017-12-02T05:54:48.684Z,91.53
2017-12-02T05:55:55.077Z,91.49
2017-12-02T05:57:01.839Z,91.45
2017-12-02T05:58:08.079Z,91.25
2017-12-02T05:59:14.331Z,91.23
2017-12-02T06:00:20.590Z,91.26
2017-12-02T06:01:26.878Z,91.27
2017-12-02T06:02:33.130Z,91.19
2017-12-02T06:03:39.947Z,91.11
2017-12-02T06:04:46.215Z,91.06
2017-12-02T06:05:52.539Z,91.02
2017-12-02T06:06:58.699Z,90.85
2017-12-02T06:08:04.766Z,90.96
2017-12-02T06:09:10.899Z,91.00
2017-12-02T06:10:17.378Z,90.99
2017-12-02T06:11:23.594Z,90.95
2017-12-02T06:12:29.531Z,90.97
2017-12-02T06:13:35.376Z,90.95
2017-12-02T06:14:41.243Z,90.94
2017-12-02T06:15:47.203Z,90.97
2017-12-02T06:16:53.465Z,90.96
2017-12-02T06:17:59.352Z,91.01
2017-12-02T06:19:05.172Z,90.75
2017-12-02T06:20:10.999Z,90.75
2017-12-02T06:21:16.916Z,90.59
2017-12-02T06:22:22.773Z,90.50
2017-12-02T06:23:29.204Z,90.18
2017-12-02T06:24:35.388Z,90.28
2017-12-02T06:25:41.458Z,90.25
2017-12-02T06:26:47.663Z,90.26
2017-12-02T06:27:53.709Z,90.25
2017-12-02T06:28:59.753Z,90.31
2017-12-02T06:30:06.345Z,90.26
2017-12-02T06:31:12.521Z,90.55
2017-12-02T06:32:18.347Z,90.73
2017-12-02T06:33:24.231Z,90.83
2017-12-02T06:34:30.462Z,90.87
2017-12-02T06:35:36.766Z,91.05
2017-12-02T06:36:43.153Z,91.03
2017-12-02T06:37:49.255Z,90.95
2017-12-02T06:38:55.318Z,90.94
2017-12-02T06:40:01.378Z,91.01
2017-12-02T06:41:07.340Z,91.09
2017-12-02T06:42:13.359Z,91.16
2017-12-02T06:43:19.910Z,91.19
2017-12-02T06:44:26.195Z,91.16
2017-12-02T06:45:32.430Z,91.42
2017-12-02T06:46:38.774Z,91.48
2017-12-02T06:47:45.053Z,91.52
2017-12-02T06:48:51.940Z,91.45
2017-12-02T06:49:58.138Z,91.48
2017-12-02T06:51:04.319Z,91.47
2017-12-02T06:52:10.494Z,91.50
2017-12-02T06:53:17.316Z,91.50
2017-12-02T06:54:23.625Z,91.48
2017-12-02T06:55:30.226Z,91.40
2017-12-02T06:56:36.395Z,91.51
2017-12-02T06:57:42.532Z,91.54
2017-12-02T06:58:48.733Z,91.51
2017-12-02T06:59:55.041Z,91.44
2017-12-02T07:01:01.253Z,91.36
2017-12-02T07:02:07.593Z,91.37
2017-12-02T07:03:14.161Z,91.65
2017-12-02T07:04:20.298Z,91.42
2017-12-02T07:05:26.589Z,91.37
2017-12-02T07:06:32.897Z,91.43
2017-12-02T07:07:39.519Z,91.40
2017-12-02T07:08:46.146Z,91.32
2017-12-02T07:09:52.505Z,91.33
2017-12-02T07:10:58.882Z,91.37
2017-12-02T07:12:05.189Z,91.40
2017-12-02T07:13:11.567Z,91.35
2017-12-02T07:14:18.386Z,91.30
2017-12-02T07:15:24.776Z,91.20
2017-12-02T07:16:31.120Z,91.11
2017-12-02T07:17:37.471Z,91.13
2017-12-02T07:18:43.868Z,90.97
2017-12-02T07:19:50.191Z,90.96
2017-12-02T07:20:56.984Z,91.07
2017-12-02T07:22:03.337Z,91.05
2017-12-02T07:23:09.649Z,90.85
2017-12-02T07:24:16.063Z,90.70
2017-12-02T07:25:22.320Z,90.80
2017-12-02T07:26:28.905Z,90.78
2017-12-02T07:27:35.588Z,90.89
2017-12-02T07:28:41.869Z,90.99
2017-12-02T07:29:48.543Z,91.14
2017-12-02T07:30:54.882Z,91.15
2017-12-02T07:32:01.268Z,91.13
2017-12-02T07:33:07.473Z,91.11
2017-12-02T07:34:14.577Z,91.10
2017-12-02T07:35:20.813Z,91.10
2017-12-02T07:36:27.037Z,91.13
2017-12-02T07:37:33.290Z,91.04
2017-12-02T07:38:39.423Z,91.03
2017-12-02T07:39:45.457Z,90.98
2017-12-02T07:40:51.888Z,90.86
2017-12-02T07:41:58.213Z,90.86
2017-12-02T07:43:04.274Z,90.84
2017-12-02T07:44:10.442Z,90.76
2017-12-02T07:45:16.570Z,90.66
2017-12-02T07:46:22.636Z,90.40
2017-12-02T07:47:29.151Z,90.46
2017-12-02T07:48:35.332Z,90.35
2017-12-02T07:49:41.373Z,90.09
2017-12-02T07:50:47.477Z,89.99
2017-12-02T07:51:53.545Z,89.90
2017-12-02T07:52:59.884Z,90.01
2017-12-02T07:54:06.399Z,90.02
2017-12-02T07:55:12.711Z,89.84
2017-12-02T07:56:18.928Z,89.89
2017-12-02T07:57:25.162Z,89.78
2017-12-02T07:58:31.469Z,89.75
2017-12-02T07:59:37.769Z,89.75
2017-12-02T08:00:44.399Z,89.76
2017-12-02T08:01:50.649Z,89.67
2017-12-02T08:02:56.859Z,89.79
2017-12-02T08:04:02.952Z,89.82
2017-12-02T08:05:08.953Z,89.79
2017-12-02T08:06:15.045Z,89.76
2017-12-02T08:07:21.059Z,89.75
2017-12-02T08:08:27.030Z,89.68
2017-12-02T08:09:33.065Z,89.54
2017-12-02T08:10:39.213Z,89.27
2017-12-02T08:11:45.493Z,89.13
2017-12-02T08:12:52.184Z,89.17
2017-12-02T08:13:58.352Z,89.21
2017-12-02T08:15:04.668Z,89.19
2017-12-02T08:16:10.969Z,89.15
2017-12-02T08:17:17.230Z,89.07
2017-12-02T08:18:23.463Z,89.06
2017-12-02T08:19:29.702Z,88.96
2017-12-02T08:20:35.875Z,88.82
2017-12-02T08:21:42.121Z,88.84
2017-12-02T08:22:48.316Z,88.72
2017-12-02T08:23:54.514Z,88.72
2017-12-02T08:25:00.799Z,88.56
2017-12-02T08:26:06.822Z,88.40
2017-12-02T08:27:12.972Z,88.36
2017-12-02T08:28:19.222Z,88.50
2017-12-02T08:29:25.376Z,88.51
2017-12-02T08:30:31.663Z,88.41
2017-12-02T08:31:38.410Z,88.27
2017-12-02T08:32:45.096Z,88.16
2017-12-02T08:33:53.463Z,88.04
2017-12-02T08:34:59.703Z,87.98
2017-12-02T08:36:05.890Z,88.04
2017-12-02T08:37:12.244Z,88.01
2017-12-02T08:38:18.769Z,87.96
2017-12-02T08:39:25.008Z,87.92
2017-12-02T08:40:31.029Z,87.89
2017-12-02T08:41:37.235Z,87.71
2017-12-02T08:42:43.306Z,87.63
2017-12-02T08:43:49.424Z,87.61
2017-12-02T08:44:55.950Z,87.57
2017-12-02T08:46:02.630Z,87.58
2017-12-02T08:47:08.751Z,87.54
2017-12-02T08:48:14.609Z,87.59
2017-12-02T08:49:20.650Z,87.52
2017-12-02T08:50:27.202Z,87.46
2017-12-02T08:51:33.375Z,87.39
2017-12-02T08:52:39.651Z,87.37
2017-12-02T08:53:45.739Z,87.28
2017-12-02T08:54:51.870Z,87.23
2017-12-02T08:55:58.264Z,87.17
2017-12-02T08:57:04.413Z,87.26
2017-12-02T08:58:10.432Z,87.34
2017-12-02T08:59:16.532Z,87.30
2017-12-02T09:00:22.609Z,87.18
2017-12-02T09:01:29.071Z,87.01
2017-12-02T09:02:35.146Z,87.17
2017-12-02T09:03:41.631Z,87.05
2017-12-02T09:04:47.825Z,86.93
2017-12-02T09:05:53.906Z,86.99
2017-12-02T09:07:00.264Z,86.91
2017-12-02T09:08:06.362Z,86.96
2017-12-02T09:09:12.310Z,86.68
2017-12-02T09:10:18.439Z,86.70
2017-12-02T09:11:24.807Z,86.61
2017-12-02T09:12:31.285Z,86.50
2017-12-02T09:13:37.424Z,86.35
2017-12-02T09:14:43.674Z,86.15
2017-12-02T09:15:49.871Z,86.05
2017-12-02T09:16:55.985Z,85.93
2017-12-02T09:18:02.110Z,85.76
2017-12-02T09:19:08.732Z,85.55
2017-12-02T09:20:14.799Z,85.33
2017-12-02T09:21:20.931Z,85.41
2017-12-02T09:22:27.291Z,85.28
2017-12-02T09:23:33.559Z,85.08
2017-12-02T09:24:39.915Z,84.91
2017-12-02T09:25:46.655Z,84.66
2017-12-02T09:26:52.909Z,84.33
2017-12-02T09:27:59.363Z,84.46
2017-12-02T09:29:05.767Z,84.35
2017-12-02T09:30:12.173Z,83.91
2017-12-02T09:31:18.928Z,83.71
2017-12-02T09:32:25.301Z,83.16
2017-12-02T09:33:31.606Z,82.59
2017-12-02T09:34:38.173Z,81.88
2017-12-02T09:35:44.414Z,81.88
2017-12-02T09:36:50.653Z,81.77
2017-12-02T09:37:57.255Z,81.69
2017-12-02T09:39:03.547Z,81.84
2017-12-02T09:40:09.947Z,81.29
2017-12-02T09:41:16.330Z,81.17
2017-12-02T09:42:22.652Z,80.59
2017-12-02T09:43:29.335Z,80.69
2017-12-02T09:44:35.947Z,80.69
2017-12-02T09:45:42.108Z,80.03
2017-12-02T09:46:48.198Z,80.11
2017-12-02T09:47:54.280Z,80.07
2017-12-02T09:49:00.359Z,81.43
2017-12-02T09:50:06.723Z,81.43
2017-12-02T09:51:12.796Z,81.70
2017-12-02T09:52:19.201Z,82.13
2017-12-02T09:53:25.442Z,82.94
2017-12-02T09:54:31.746Z,83.51
2017-12-02T09:55:38.275Z,83.74
2017-12-02T09:56:44.511Z,83.96
2017-12-02T09:57:50.871Z,83.84
2017-12-02T09:58:57.138Z,83.87
2017-12-02T10:00:03.449Z,83.86
2017-12-02T10:01:09.753Z,84.44
2017-12-02T10:02:16.278Z,84.79
2017-12-02T10:03:22.621Z,85.01
2017-12-02T10:04:28.851Z,85.54
2017-12-02T10:05:35.073Z,85.54
2017-12-02T10:06:41.654Z,85.59
2017-12-02T10:07:47.865Z,85.82
2017-12-02T10:08:55.257Z,86.11
2017-12-02T10:10:03.555Z,86.15
2017-12-02T10:11:10.020Z,86.10
2017-12-02T10:12:16.302Z,85.92
2017-12-02T10:13:22.667Z,85.91
2017-12-02T10:14:28.980Z,85.79
2017-12-02T10:15:35.522Z,85.68
2017-12-02T10:16:42.089Z,85.52
2017-12-02T10:17:48.504Z,85.20
2017-12-02T10:18:54.919Z,84.51
2017-12-02T10:20:01.337Z,83.65
2017-12-02T10:21:08.254Z,83.07
2017-12-02T10:22:14.731Z,82.34
2017-12-02T10:23:21.311Z,82.10
2017-12-02T10:24:27.667Z,81.44
2017-12-02T10:25:34.278Z,80.97
2017-12-02T10:26:40.596Z,80.50
2017-12-02T10:27:47.237Z,79.78
2017-12-02T10:28:53.782Z,79.29
2017-12-02T10:30:00.035Z,78.62
2017-12-02T10:31:06.253Z,78.22
2017-12-02T10:32:12.518Z,77.37
2017-12-02T10:33:18.957Z,77.42
2017-12-02T10:34:26.033Z,77.61
2017-12-02T10:35:32.416Z,77.75
2017-12-02T10:36:38.760Z,77.33
2017-12-02T10:37:44.986Z,77.06
2017-12-02T10:38:51.066Z,77.59
2017-12-02T10:39:57.354Z,77.73
2017-12-02T10:41:03.994Z,77.81
2017-12-02T10:42:10.404Z,77.50
2017-12-02T10:43:16.720Z,77.39
2017-12-02T10:44:23.175Z,77.50
2017-12-02T10:45:29.604Z,78.24
2017-12-02T10:47:40.991Z,78.84
2017-12-02T10:48:46.978Z,78.76
2017-12-02T10:49:53.052Z,78.62
2017-12-02T10:50:59.982Z,78.58
2017-12-02T10:52:06.083Z,78.50
2017-12-02T10:53:19.120Z,78.77
2017-12-02T10:54:27.489Z,78.77
2017-12-02T10:55:33.602Z,78.40
2017-12-02T10:56:40.215Z,78.27
2017-12-02T10:57:46.338Z,78.17
2017-12-02T10:58:52.495Z,78.27
2017-12-02T10:59:59.147Z,78.35
2017-12-02T11:01:05.832Z,78.39
2017-12-02T11:02:11.719Z,78.55
2017-12-02T11:03:17.662Z,78.91
2017-12-02T11:04:23.544Z,79.35
2017-12-02T11:05:29.779Z,79.50
2017-12-02T11:06:36.329Z,79.75
2017-12-02T11:07:42.887Z,79.96
2017-12-02T11:08:49.157Z,80.17
2017-12-02T11:09:55.540Z,80.70
2017-12-02T11:11:01.781Z,80.80
2017-12-02T11:12:08.350Z,81.34
2017-12-02T11:13:14.942Z,81.42
2017-12-02T11:14:21.254Z,81.35
2017-12-02T11:15:27.392Z,81.74
2017-12-02T11:16:33.633Z,81.84
2017-12-02T11:17:39.862Z,81.67
2017-12-02T11:18:46.160Z,81.52
2017-12-02T11:19:52.927Z,81.42
2017-12-02T11:20:59.356Z,81.37
2017-12-02T11:22:07.081Z,81.51
2017-12-02T11:23:13.749Z,81.68
2017-12-02T11:24:19.821Z,81.84
2017-12-02T11:25:25.865Z,81.95
2017-12-02T11:26:32.466Z,81.95
2017-12-02T11:27:38.465Z,81.89
2017-12-02T11:28:44.513Z,82.36
2017-12-02T11:29:50.633Z,82.77
2017-12-02T11:30:56.526Z,82.91
2017-12-02T11:32:02.409Z,82.74
2017-12-02T11:33:08.718Z,82.78
2017-12-02T11:34:15.359Z,82.72
2017-12-02T11:35:23.592Z,82.54
2017-12-02T11:36:29.640Z,82.35
2017-12-02T11:37:35.743Z,82.47
2017-12-02T11:38:42.063Z,82.30
2017-12-02T11:39:49.923Z,82.08
2017-12-02T11:40:56.842Z,81.65
2017-12-02T11:42:03.564Z,81.38
2017-12-02T11:43:10.204Z,81.14
2017-12-02T11:44:17.406Z,80.94
2017-12-02T11:45:25.632Z,80.56
2017-12-02T11:46:33.829Z,80.15
2017-12-02T11:47:39.944Z,79.71
2017-12-02T11:48:46.693Z,79.56
2017-12-02T11:49:53.622Z,78.86
2017-12-02T11:52:05.520Z,78.30
2017-12-02T11:53:12.247Z,77.23
2017-12-02T11:54:18.987Z,75.34
2017-12-02T11:55:25.215Z,72.59
2017-12-02T11:56:31.525Z,71.08
2017-12-02T11:57:37.619Z,70.17
2017-12-02T11:58:43.788Z,70.07
2017-12-02T11:59:50.437Z,69.65
2017-12-02T12:00:58.603Z,69.57
2017-12-02T12:02:05.043Z,69.12
2017-12-02T12:03:11.447Z,69.00
2017-12-02T12:04:18.688Z,68.46
2017-12-02T12:05:26.827Z,67.70
2017-12-02T12:06:33.653Z,66.66
2017-12-02T12:07:40.340Z,66.52
2017-12-02T12:08:46.535Z,67.19
2017-12-02T12:09:54.492Z,65.41
2017-12-02T12:11:00.722Z,63.55
2017-12-02T12:12:07.700Z,63.21
2017-12-02T12:13:14.952Z,62.79
2017-12-02T12:14:21.961Z,62.27
2017-12-02T12:15:28.921Z,62.22
2017-12-02T12:16:35.522Z,62.62
2017-12-02T12:17:41.868Z,63.73
2017-12-02T12:18:49.724Z,63.50
2017-12-02T12:19:57.079Z,63.67
2017-12-02T12:21:03.558Z,64.89
2017-12-02T12:22:10.080Z,65.48
2017-12-02T12:23:16.566Z,66.44
2017-12-02T12:24:22.823Z,67.79
2017-12-02T12:25:30.205Z,68.73
2017-12-02T12:26:36.729Z,68.98
2017-12-02T12:27:43.536Z,69.07
2017-12-02T12:28:50.037Z,70.09
2017-12-02T12:29:56.581Z,71.22
2017-12-02T12:31:03.639Z,71.15
2017-12-02T12:32:10.093Z,71.23
2017-12-02T12:33:17.351Z,71.41
2017-12-02T12:34:23.729Z,71.90
2017-12-02T12:35:30.226Z,71.97
2017-12-02T12:36:36.752Z,72.33
2017-12-02T12:37:43.309Z,72.59
2017-12-02T12:38:50.420Z,72.72
2017-12-02T12:39:58.242Z,73.50
2017-12-02T12:41:04.676Z,73.66
2017-12-02T12:42:11.339Z,74.08
2017-12-02T12:43:17.828Z,73.89
2017-12-02T12:44:24.239Z,73.95
2017-12-02T12:45:30.609Z,73.53
2017-12-02T12:46:37.090Z,73.51
2017-12-02T12:47:43.619Z,73.47
2017-12-02T12:48:51.709Z,73.67
2017-12-02T12:49:58.215Z,73.25
2017-12-02T12:51:04.858Z,73.25
2017-12-02T12:52:11.841Z,72.93
2017-12-02T12:53:18.439Z,72.76
2017-12-02T12:54:25.409Z,72.72
2017-12-02T12:55:32.575Z,73.34
2017-12-02T12:56:39.764Z,74.33
2017-12-02T12:57:46.108Z,74.65
2017-12-02T12:58:52.439Z,74.62
2017-12-02T12:59:58.923Z,74.32
2017-12-02T13:01:05.480Z,73.62
2017-12-02T13:02:11.793Z,72.88
2017-12-02T13:03:18.823Z,72.89
2017-12-02T13:04:26.743Z,72.83
2017-12-02T13:05:33.014Z,72.51
2017-12-02T13:06:39.450Z,72.20
2017-12-02T13:07:46.261Z,72.79
2017-12-02T13:08:54.825Z,73.33
2017-12-02T13:10:01.647Z,73.11
2017-12-02T13:11:07.894Z,72.88
2017-12-02T13:12:14.786Z,73.02
2017-12-02T13:13:22.382Z,73.58
2017-12-02T13:14:28.749Z,73.65
2017-12-02T13:15:35.179Z,73.77
2017-12-02T13:16:42.527Z,73.71
2017-12-02T13:17:48.903Z,73.88
2017-12-02T13:18:55.236Z,74.09
2017-12-02T13:20:02.313Z,74.40
2017-12-02T13:21:08.799Z,74.36
2017-12-02T13:22:19.382Z,74.14
2017-12-02T13:23:25.873Z,73.33
2017-12-02T13:24:32.801Z,73.96
2017-12-02T13:25:39.293Z,74.90
2017-12-02T13:26:46.237Z,74.78
2017-12-02T13:27:54.376Z,75.42
2017-12-02T13:29:02.103Z,75.98
2017-12-02T13:30:11.637Z,76.21
2017-12-02T13:31:18.935Z,77.45
2017-12-02T13:32:25.645Z,77.78
2017-12-02T13:33:32.051Z,77.55
2017-12-02T13:34:38.938Z,77.11
2017-12-02T13:35:47.005Z,77.91
2017-12-02T13:36:53.775Z,76.36
2017-12-02T13:37:59.990Z,75.92
2017-12-02T13:39:06.812Z,75.81
2017-12-02T13:40:15.264Z,76.16
2017-12-02T13:41:22.043Z,76.29
2017-12-02T13:42:28.476Z,76.16
2017-12-02T13:43:35.060Z,77.59
2017-12-02T13:44:41.443Z,76.89
2017-12-02T13:45:47.952Z,76.67
2017-12-02T13:46:54.721Z,76.96
2017-12-02T13:48:01.867Z,76.68
2017-12-02T13:49:08.649Z,77.12
2017-12-02T13:50:17.848Z,76.61
2017-12-02T13:51:25.758Z,76.68
2017-12-02T13:52:32.671Z,76.27
2017-12-02T13:53:39.752Z,76.49
2017-12-02T13:54:47.381Z,75.77
2017-12-02T13:55:54.484Z,77.14
2017-12-02T13:57:00.936Z,76.20
2017-12-02T13:58:07.481Z,75.95
2017-12-02T13:59:13.859Z,75.77
2017-12-02T14:00:20.456Z,77.14
2017-12-02T14:01:28.058Z,77.06
2017-12-02T14:02:34.308Z,77.29
2017-12-02T14:03:40.679Z,77.19
2017-12-02T14:04:47.387Z,77.07
2017-12-02T14:05:53.711Z,77.11
2017-12-02T14:07:00.129Z,77.94
2017-12-02T14:08:07.070Z,78.11
2017-12-02T14:09:17.358Z,77.90
2017-12-02T14:10:25.475Z,78.41
2017-12-02T14:11:34.815Z,78.51
2017-12-02T14:12:41.600Z,78.39
2017-12-02T14:13:48.683Z,78.55
2017-12-02T14:14:56.068Z,78.56
2017-12-02T14:16:03.306Z,78.62
2017-12-02T14:17:09.907Z,78.46